Time;durP1;ratioP1;P1;durP2;ratioP2;P2;SDS_P1;SDS_P2;PMS_P1;PMS_P2;Temp;Humidity;BMP_temperature;BMP_pressure;BME280_temperature;BME280_humidity;BME280_pressure;Samples;Min_cycle;Max_cycle;Signal;HPM_P1;HPM_P2
2022/01/17 00:01:35;;;;;;;8.37;3.47;;;2.20;99.90;;;;;;6291323;22;20167;-85
2022/01/17 00:04:05;;;;;;;7.43;2.83;;;2.20;99.90;;;;;;6289311;22;20000;-86
2022/01/17 00:09:00;;;;;;;5.77;2.57;;;2.20;99.90;;;;;;6275754;22;20430;-87
2022/01/17 00:11:26;;;;;;;7.20;2.90;;;2.30;99.90;;;;;;6253926;22;20006;-88
2022/01/17 00:13:51;;;;;;;7.23;3.13;;;2.30;99.90;;;;;;6277996;22;20010;-87
2022/01/17 00:16:24;;;;;;;9.10;2.77;;;2.30;99.90;;;;;;6252520;22;20004;-88
2022/01/17 00:21:17;;;;;;;7.13;2.73;;;2.30;99.90;;;;;;6248087;23;20012;-86
2022/01/17 00:23:43;;;;;;;7.60;3.73;;;2.40;99.90;;;;;;6244483;23;20000;-87
2022/01/17 00:26:09;;;;;;;9.23;3.17;;;2.40;99.90;;;;;;6248134;23;20046;-88
2022/01/17 00:28:34;;;;;;;9.37;3.57;;;2.40;99.90;;;;;;6246836;23;20083;-88
2022/01/17 00:31:04;;;;;;;6.20;3.00;;;2.30;99.90;;;;;;6219099;23;20085;-87
2022/01/17 00:33:30;;;;;;;8.70;3.07;;;2.30;99.90;;;;;;6221154;23;20068;-89
2022/01/17 00:35:56;;;;;;;7.47;2.93;;;2.30;99.90;;;;;;6219933;23;20097;-88
2022/01/17 00:38:22;;;;;;;8.83;3.57;;;2.30;99.90;;;;;;6220141;23;20004;-88
2022/01/17 00:40:47;;;;;;;6.80;3.27;;;2.40;99.90;;;;;;6249002;23;20007;-88
2022/01/17 00:43:13;;;;;;;6.43;2.40;;;2.50;99.90;;;;;;6249263;23;20008;-88
2022/01/17 00:45:41;;;;;;;7.40;2.80;;;2.50;99.90;;;;;;6249241;23;20000;-88
2022/01/17 00:48:07;;;;;;;8.37;3.00;;;2.50;99.90;;;;;;6222650;23;20004;-88
2022/01/17 00:50:37;;;;;;;6.20;2.80;;;2.50;99.90;;;;;;6249066;23;20000;-88
2022/01/17 00:53:04;;;;;;;12.30;3.00;;;2.50;99.90;;;;;;6222629;23;20012;-88
2022/01/17 00:55:32;;;;;;;5.37;2.80;;;2.50;99.90;;;;;;6249322;23;20004;-89
2022/01/17 00:57:58;;;;;;;6.23;2.90;;;2.40;99.90;;;;;;6254003;23;20004;-88
2022/01/17 01:00:24;;;;;;;6.97;3.27;;;2.50;99.90;;;;;;6256228;23;20011;-88
2022/01/17 01:02:50;;;;;;;6.47;2.80;;;2.50;99.90;;;;;;6253389;23;20012;-89
2022/01/17 01:05:19;;;;;;;7.60;2.93;;;2.50;99.90;;;;;;6224025;23;20403;-88
2022/01/17 01:07:45;;;;;;;5.57;2.70;;;2.50;99.90;;;;;;6250012;23;20107;-88
2022/01/17 01:10:12;;;;;;;8.40;3.27;;;2.50;99.90;;;;;;6222733;23;20453;-87
2022/01/17 01:12:43;;;;;;;7.20;3.43;;;2.50;99.90;;;;;;6223131;23;20121;-88
2022/01/17 01:15:17;;;;;;;6.28;2.47;;;2.50;99.90;;;;;;6218553;23;20000;-88
2022/01/17 01:17:54;;;;;;;9.33;2.80;;;2.50;99.90;;;;;;6221840;23;20081;-89
2022/01/17 01:28:22;;;;;;;8.27;2.87;;;2.40;99.90;;;;;;6191941;23;20004;-88
2022/01/17 01:30:51;;;;;;;6.30;2.60;;;2.40;99.90;;;;;;6222197;23;20000;-89
2022/01/17 01:33:22;;;;;;;7.63;3.17;;;2.40;99.90;;;;;;6252839;23;20004;-88
2022/01/17 01:35:49;;;;;;;8.47;3.60;;;2.40;99.90;;;;;;6252365;23;20031;-88
2022/01/17 01:38:14;;;;;;;9.00;4.10;;;2.40;99.90;;;;;;6221753;23;20015;-88
2022/01/17 01:40:40;;;;;;;8.57;3.63;;;2.40;99.90;;;;;;6221524;23;20490;-88
2022/01/17 01:43:06;;;;;;;10.43;4.10;;;2.40;99.90;;;;;;6248122;23;20043;-88
2022/01/17 01:45:32;;;;;;;9.67;3.63;;;2.40;99.90;;;;;;6221610;23;20000;-88
2022/01/17 01:47:58;;;;;;;8.70;4.23;;;2.40;99.90;;;;;;6222674;23;20000;-88
2022/01/17 01:50:24;;;;;;;9.17;4.17;;;2.30;99.90;;;;;;6247604;23;20007;-88
2022/01/17 01:52:49;;;;;;;8.60;4.00;;;2.30;99.90;;;;;;6220787;23;20004;-88
2022/01/17 01:55:20;;;;;;;8.27;4.07;;;2.30;99.90;;;;;;6221447;23;20004;-88
2022/01/17 01:57:46;;;;;;;9.30;4.00;;;2.30;99.90;;;;;;6221791;23;20465;-89
2022/01/17 02:00:14;;;;;;;9.80;3.80;;;2.30;99.90;;;;;;6220482;23;20004;-88
2022/01/17 02:02:40;;;;;;;8.10;3.83;;;2.30;99.90;;;;;;6220823;23;20008;-88
2022/01/17 02:05:06;;;;;;;8.97;3.70;;;2.20;99.90;;;;;;6221420;23;20008;-88
2022/01/17 02:07:32;;;;;;;9.60;4.77;;;2.20;99.90;;;;;;6246882;23;20035;-88
2022/01/17 02:09:58;;;;;;;9.07;3.97;;;2.20;99.90;;;;;;6219795;23;20003;-88
2022/01/17 02:12:26;;;;;;;10.73;3.97;;;2.10;99.90;;;;;;6219722;23;20015;-87
2022/01/17 02:14:54;;;;;;;9.50;3.87;;;2.10;99.90;;;;;;6244126;23;19997;-89
2022/01/17 02:17:24;;;;;;;8.77;3.97;;;2.00;99.90;;;;;;6247309;23;20062;-88
2022/01/17 02:20:03;;;;;;;8.03;3.80;;;2.10;99.90;;;;;;6246031;23;20004;-89
2022/01/17 02:22:29;;;;;;;7.97;3.87;;;2.20;99.90;;;;;;6219670;23;20075;-87
2022/01/17 02:24:54;;;;;;;10.33;4.03;;;2.00;99.90;;;;;;6219159;23;20047;-89
2022/01/17 02:27:20;;;;;;;9.10;3.90;;;2.00;99.90;;;;;;6218787;23;20012;-88
2022/01/17 02:29:46;;;;;;;8.10;3.30;;;2.00;99.90;;;;;;6219663;23;20007;-87
2022/01/17 02:32:12;;;;;;;10.07;3.87;;;2.00;99.90;;;;;;6220322;23;20430;-87
2022/01/17 02:34:44;;;;;;;8.47;3.70;;;2.00;99.90;;;;;;6220332;23;20366;-88
2022/01/17 02:37:11;;;;;;;8.20;4.50;;;2.00;99.90;;;;;;6247126;23;20004;-87
2022/01/17 02:39:37;;;;;;;9.07;4.13;;;2.00;99.90;;;;;;6220182;23;20011;-88
2022/01/17 02:42:05;;;;;;;10.70;4.03;;;2.00;99.90;;;;;;6218895;23;20062;-88
2022/01/17 02:44:31;;;;;;;11.10;4.63;;;1.90;99.90;;;;;;6219473;23;20434;-88
2022/01/17 02:46:58;;;;;;;11.17;4.40;;;1.90;99.90;;;;;;6246277;23;19996;-87
2022/01/17 02:49:24;;;;;;;13.23;5.07;;;1.90;99.90;;;;;;6247060;23;20008;-88
2022/01/17 02:51:51;;;;;;;9.27;3.50;;;2.00;99.90;;;;;;6219958;23;20054;-88
2022/01/17 02:54:17;;;;;;;8.70;3.40;;;1.90;99.90;;;;;;6245459;23;20058;-86
2022/01/17 02:56:43;;;;;;;8.57;3.40;;;1.90;99.90;;;;;;6245869;23;19992;-88
2022/01/17 02:59:09;;;;;;;8.77;3.33;;;2.00;99.90;;;;;;6219645;23;20056;-87
2022/01/17 03:01:34;;;;;;;10.13;3.30;;;2.00;99.90;;;;;;6218207;23;20008;-88
2022/01/17 03:04:00;;;;;;;7.70;3.60;;;2.00;99.90;;;;;;6220469;23;20011;-87
2022/01/17 03:06:27;;;;;;;9.17;4.03;;;2.00;99.90;;;;;;6245644;23;19996;-88
2022/01/17 03:08:53;;;;;;;8.47;3.30;;;1.90;99.90;;;;;;6246254;23;20454;-88
2022/01/17 03:11:24;;;;;;;10.43;4.00;;;2.00;99.90;;;;;;6219435;23;20000;-87
2022/01/17 03:13:51;;;;;;;7.27;3.37;;;2.00;99.90;;;;;;6215974;23;20446;-88
2022/01/17 03:16:19;;;;;;;6.97;2.90;;;2.00;99.90;;;;;;6219972;23;20012;-87
2022/01/17 03:18:50;;;;;;;7.47;3.40;;;2.00;99.90;;;;;;6219951;23;20008;-88
2022/01/17 03:21:17;;;;;;;7.50;3.20;;;2.00;99.90;;;;;;6246449;23;19996;-87
2022/01/17 03:23:44;;;;;;;8.20;3.40;;;2.00;99.90;;;;;;6246555;23;20004;-88
2022/01/17 03:26:10;;;;;;;8.77;3.57;;;2.00;99.90;;;;;;6219501;23;20003;-88
2022/01/17 03:28:36;;;;;;;11.47;4.17;;;1.90;99.90;;;;;;6218973;23;20001;-87
2022/01/17 03:31:03;;;;;;;8.33;3.73;;;2.00;99.90;;;;;;6246702;23;20000;-88
2022/01/17 03:33:30;;;;;;;7.87;3.40;;;2.00;99.90;;;;;;6246164;23;19996;-88
2022/01/17 03:35:56;;;;;;;10.00;3.53;;;1.90;99.90;;;;;;6245653;23;20039;-87
2022/01/17 03:38:26;;;;;;;9.20;4.20;;;2.00;99.90;;;;;;6219077;23;20723;-88
2022/01/17 03:40:52;;;;;;;9.63;3.73;;;2.00;99.90;;;;;;6218074;23;20095;-86
2022/01/17 03:43:20;;;;;;;8.53;3.93;;;2.00;99.90;;;;;;6244708;23;20056;-88
2022/01/17 03:45:46;;;;;;;9.47;4.30;;;1.90;99.90;;;;;;6245440;23;19996;-88
2022/01/17 03:48:14;;;;;;;10.93;4.60;;;2.00;99.90;;;;;;6244794;23;20004;-86
2022/01/17 03:50:39;;;;;;;12.30;4.50;;;1.90;99.90;;;;;;6218240;23;20030;-88
2022/01/17 03:53:05;;;;;;;10.77;4.30;;;2.00;99.90;;;;;;6219206;23;20361;-88
2022/01/17 03:55:33;;;;;;;9.47;4.07;;;1.90;99.90;;;;;;6245268;23;20019;-88
2022/01/17 03:58:00;;;;;;;10.50;4.47;;;1.90;99.90;;;;;;6217604;23;20035;-88
2022/01/17 04:00:30;;;;;;;10.23;4.17;;;2.00;99.90;;;;;;6217133;23;20083;-88
2022/01/17 04:02:56;;;;;;;8.87;4.53;;;2.00;99.90;;;;;;6218013;23;20035;-88
2022/01/17 04:05:22;;;;;;;7.80;3.73;;;2.00;99.90;;;;;;6217971;23;20142;-87
2022/01/17 04:07:48;;;;;;;11.30;4.27;;;2.00;99.90;;;;;;6245239;23;20232;-88
2022/01/17 04:10:15;;;;;;;11.57;4.50;;;1.90;99.90;;;;;;6218639;23;20443;-87
2022/01/17 04:12:42;;;;;;;10.43;4.30;;;1.90;99.90;;;;;;6219468;23;20004;-87
2022/01/17 04:15:09;;;;;;;11.63;4.17;;;1.90;99.90;;;;;;6217786;23;20008;-88
2022/01/17 04:17:35;;;;;;;9.97;4.40;;;1.90;99.90;;;;;;6224521;23;20008;-89
2022/01/17 04:20:09;;;;;;;9.73;4.07;;;1.90;99.90;;;;;;6221824;23;20442;-87
2022/01/17 04:22:40;;;;;;;9.30;4.70;;;1.90;99.90;;;;;;6247223;23;20011;-89
2022/01/17 04:25:07;;;;;;;9.38;4.15;;;1.90;99.90;;;;;;6220799;23;20434;-89
2022/01/17 04:27:33;;;;;;;11.67;4.30;;;1.90;99.90;;;;;;6220038;23;20062;-88
2022/01/17 04:30:00;;;;;;;8.17;3.63;;;1.90;99.90;;;;;;6224047;23;20323;-88
2022/01/17 04:32:26;;;;;;;10.03;4.13;;;1.90;99.90;;;;;;6220158;23;20058;-89
2022/01/17 04:34:51;;;;;;;8.53;3.80;;;2.00;99.90;;;;;;6220294;23;20012;-88
2022/01/17 04:37:17;;;;;;;10.10;3.73;;;2.00;99.90;;;;;;6221029;23;20015;-87
2022/01/17 04:39:43;;;;;;;8.20;3.87;;;2.00;99.90;;;;;;6247928;23;20335;-89
2022/01/17 04:42:13;;;;;;;7.70;3.87;;;2.00;99.90;;;;;;6219440;23;20059;-89
2022/01/17 04:47:23;;;;;;;9.27;3.80;;;2.00;99.90;;;;;;6246526;23;20346;-88
2022/01/17 04:49:49;;;;;;;9.13;4.07;;;2.00;99.90;;;;;;6246602;23;20106;-88
2022/01/17 04:52:15;;;;;;;9.60;3.80;;;1.90;99.90;;;;;;6220284;23;20004;-88
2022/01/17 04:54:43;;;;;;;7.63;3.70;;;2.00;99.90;;;;;;6247231;23;20004;-88
2022/01/17 04:57:11;;;;;;;9.70;4.17;;;2.00;99.90;;;;;;6219956;23;20086;-88
2022/01/17 04:59:39;;;;;;;8.70;3.80;;;2.00;99.90;;;;;;6220301;23;20011;-88
2022/01/17 05:02:06;;;;;;;8.67;3.80;;;2.00;99.90;;;;;;6218923;23;20027;-87
2022/01/17 05:04:32;;;;;;;9.97;3.83;;;2.00;99.90;;;;;;6246802;23;20356;-89
2022/01/17 05:06:58;;;;;;;7.17;3.03;;;2.00;99.90;;;;;;6219699;23;20015;-86
2022/01/17 05:09:24;;;;;;;8.70;3.03;;;2.00;99.90;;;;;;6219914;23;20004;-88
2022/01/17 05:11:49;;;;;;;9.17;3.53;;;2.00;99.90;;;;;;6218492;23;20066;-89
2022/01/17 05:14:15;;;;;;;7.53;3.47;;;2.00;99.90;;;;;;6242073;23;20024;-88
2022/01/17 05:16:47;;;;;;;8.23;3.50;;;2.00;99.90;;;;;;6245723;23;20047;-88
2022/01/17 05:21:57;;;;;;;9.43;3.27;;;2.00;99.90;;;;;;6245341;23;20042;-88
2022/01/17 05:24:23;;;;;;;8.70;3.73;;;2.00;99.90;;;;;;6246606;23;19992;-88
2022/01/17 05:26:48;;;;;;;7.43;2.87;;;2.10;99.90;;;;;;6219735;23;20103;-89
2022/01/17 05:29:14;;;;;;;8.50;3.50;;;2.10;99.90;;;;;;6219583;23;20015;-89
2022/01/17 05:31:40;;;;;;;7.97;3.23;;;2.00;99.90;;;;;;6219679;23;20418;-88
2022/01/17 05:34:06;;;;;;;10.73;3.93;;;2.00;99.90;;;;;;6219551;23;20004;-88
2022/01/17 05:36:31;;;;;;;9.30;3.33;;;2.10;99.90;;;;;;6219529;23;20057;-88
2022/01/17 05:38:57;;;;;;;7.53;3.57;;;2.10;99.90;;;;;;6219740;23;20015;-87
2022/01/17 05:41:22;;;;;;;6.83;3.13;;;2.10;99.90;;;;;;6216171;23;20075;-87
2022/01/17 05:43:48;;;;;;;8.03;3.53;;;2.10;99.90;;;;;;6243787;23;20031;-87
2022/01/17 05:46:14;;;;;;;8.63;3.50;;;2.10;99.90;;;;;;6244263;23;20046;-88
2022/01/17 05:48:40;;;;;;;9.50;3.60;;;2.10;99.90;;;;;;6217185;23;20035;-87
2022/01/17 05:51:05;;;;;;;8.13;3.90;;;2.10;99.90;;;;;;6215889;23;20007;-87
2022/01/17 05:53:31;;;;;;;9.40;3.80;;;2.10;99.90;;;;;;6261913;23;20003;-86
2022/01/17 05:55:57;;;;;;;7.17;3.20;;;2.10;99.90;;;;;;6239242;23;20008;-87
2022/01/17 05:58:23;;;;;;;9.20;3.47;;;2.20;99.90;;;;;;6264228;23;20300;-86
2022/01/17 06:00:49;;;;;;;8.30;3.47;;;2.10;99.90;;;;;;6256229;23;20004;-88
2022/01/17 06:03:15;;;;;;;10.33;4.00;;;2.20;99.90;;;;;;6216592;23;20008;-87
2022/01/17 06:05:41;;;;;;;8.97;3.90;;;2.20;99.90;;;;;;6216306;23;20039;-88
2022/01/17 06:08:07;;;;;;;11.60;3.30;;;2.20;99.90;;;;;;6218394;23;20011;-88
2022/01/17 06:10:33;;;;;;;7.90;3.33;;;2.20;99.90;;;;;;6217789;23;20000;-88
2022/01/17 06:13:01;;;;;;;7.80;3.17;;;2.20;99.90;;;;;;6219460;23;20004;-87
2022/01/17 06:15:27;;;;;;;8.53;3.60;;;2.20;99.90;;;;;;6219116;23;20038;-87
2022/01/17 06:17:53;;;;;;;8.90;3.53;;;2.20;99.90;;;;;;6237692;23;20015;-86
2022/01/17 06:20:19;;;;;;;6.27;2.77;;;2.20;99.90;;;;;;6242919;23;20019;-85
2022/01/17 06:22:44;;;;;;;9.50;3.40;;;2.20;99.90;;;;;;6269680;23;20012;-87
2022/01/17 06:25:10;;;;;;;7.53;2.90;;;2.20;99.90;;;;;;6243724;23;19992;-87
2022/01/17 06:27:36;;;;;;;11.23;3.43;;;2.20;99.90;;;;;;6243340;22;20020;-85
2022/01/17 06:30:03;;;;;;;8.63;3.10;;;2.20;99.90;;;;;;6230027;23;20015;-87
2022/01/17 06:32:30;;;;;;;9.97;3.00;;;2.20;99.90;;;;;;6218141;23;20000;-87
2022/01/17 06:34:56;;;;;;;8.40;3.70;;;2.20;99.90;;;;;;6219222;23;20040;-88
2022/01/17 06:37:22;;;;;;;7.30;3.27;;;2.30;99.90;;;;;;6218723;23;19996;-88
2022/01/17 06:39:48;;;;;;;8.63;3.03;;;2.30;99.90;;;;;;6244677;23;20023;-89
2022/01/17 06:42:13;;;;;;;8.67;3.00;;;2.30;99.90;;;;;;6217853;23;20042;-89
2022/01/17 06:44:39;;;;;;;7.10;2.80;;;2.30;99.90;;;;;;6219189;23;20058;-90
2022/01/17 06:47:05;;;;;;;6.77;3.03;;;2.30;99.90;;;;;;6218687;23;20058;-87
2022/01/17 06:49:30;;;;;;;6.53;2.93;;;2.30;99.90;;;;;;6217800;23;20003;-89
2022/01/17 06:51:56;;;;;;;5.57;2.77;;;2.40;99.90;;;;;;6216863;23;20028;-89
2022/01/17 06:54:21;;;;;;;7.10;2.93;;;2.30;99.90;;;;;;6219350;23;20008;-89
2022/01/17 06:56:47;;;;;;;8.93;2.97;;;2.40;99.90;;;;;;6219707;23;20016;-87
2022/01/17 06:59:14;;;;;;;5.63;2.63;;;2.40;99.90;;;;;;6217789;23;20038;-88
2022/01/17 07:01:41;;;;;;;6.93;2.87;;;2.40;99.90;;;;;;6217599;23;20004;-89
2022/01/17 07:04:07;;;;;;;5.83;2.93;;;2.50;99.90;;;;;;6217817;23;20323;-89
2022/01/17 07:06:34;;;;;;;5.97;2.57;;;2.50;99.90;;;;;;6217148;23;20188;-89
2022/01/17 07:09:00;;;;;;;7.50;2.47;;;2.50;99.90;;;;;;6217298;23;20443;-89
2022/01/17 07:11:26;;;;;;;6.47;2.93;;;2.60;99.90;;;;;;6217324;23;20000;-89
2022/01/17 07:13:52;;;;;;;7.27;3.20;;;2.60;99.90;;;;;;6216998;23;20008;-89
2022/01/17 07:16:18;;;;;;;5.63;2.27;;;2.60;99.90;;;;;;6217564;23;20008;-89
2022/01/17 07:18:44;;;;;;;5.20;2.63;;;2.60;99.90;;;;;;6218104;23;20123;-89
2022/01/17 07:21:10;;;;;;;6.83;2.50;;;2.70;99.90;;;;;;6244233;23;20000;-89
2022/01/17 07:23:36;;;;;;;7.27;2.40;;;2.70;99.90;;;;;;6216985;23;20004;-88
2022/01/17 07:26:02;;;;;;;7.13;2.93;;;2.70;99.90;;;;;;6218257;23;20004;-88
2022/01/17 07:28:28;;;;;;;4.97;2.30;;;2.70;99.90;;;;;;6216429;23;20023;-89
2022/01/17 07:30:54;;;;;;;5.87;2.37;;;2.80;99.90;;;;;;6244066;23;20215;-89
2022/01/17 07:33:22;;;;;;;4.83;2.23;;;2.70;99.90;;;;;;6218825;23;20008;-90
2022/01/17 07:35:48;;;;;;;6.93;2.57;;;2.80;99.90;;;;;;6247832;23;20000;-89
2022/01/17 07:38:14;;;;;;;4.60;2.17;;;2.80;99.90;;;;;;6243355;23;20066;-88
2022/01/17 07:40:42;;;;;;;4.83;2.47;;;2.80;99.90;;;;;;6217522;23;20374;-88
2022/01/17 07:43:09;;;;;;;4.57;2.10;;;2.80;99.90;;;;;;6216792;23;20442;-89
2022/01/17 07:45:36;;;;;;;6.73;2.30;;;2.90;99.90;;;;;;6217285;23;20014;-89
2022/01/17 07:50:28;;;;;;;6.67;2.47;;;2.90;99.90;;;;;;6244620;23;20004;-90
2022/01/17 07:52:53;;;;;;;7.53;2.50;;;2.90;99.90;;;;;;6242857;23;20000;-89
2022/01/17 07:55:20;;;;;;;7.53;2.73;;;2.90;99.90;;;;;;6217427;23;20004;-89
2022/01/17 07:57:47;;;;;;;5.63;2.50;;;2.90;99.90;;;;;;6218002;23;20007;-91
2022/01/17 08:00:16;;;;;;;5.23;2.27;;;2.90;99.90;;;;;;6218333;23;20008;-91
2022/01/17 08:02:41;;;;;;;9.43;2.30;;;2.90;99.90;;;;;;6217707;23;20011;-90
2022/01/17 08:05:10;;;;;;;5.73;2.23;;;2.90;99.90;;;;;;6218289;23;20027;-91
2022/01/17 08:07:35;;;;;;;4.87;2.07;;;3.00;99.90;;;;;;6243464;23;20057;-88
2022/01/17 08:10:01;;;;;;;5.30;2.30;;;3.00;99.90;;;;;;6242800;23;20075;-89
2022/01/17 08:12:30;;;;;;;5.13;2.33;;;3.00;99.90;;;;;;6254401;22;20026;-87
2022/01/17 08:15:04;;;;;;;6.57;2.23;;;3.10;99.90;;;;;;6232186;22;20008;-87
2022/01/17 08:17:30;;;;;;;4.07;1.77;;;3.00;99.90;;;;;;6254036;22;20319;-87
2022/01/17 08:20:05;;;;;;;6.20;2.13;;;3.00;99.90;;;;;;6275241;22;20023;-87
2022/01/17 08:22:33;;;;;;;4.90;2.20;;;3.10;99.90;;;;;;6252565;22;20012;-87
2022/01/17 08:25:17;;;;;;;4.87;2.27;;;3.10;99.90;;;;;;6288993;22;20004;-87
2022/01/17 08:27:53;;;;;;;5.17;1.80;;;3.10;99.90;;;;;;6267016;22;20007;-88
2022/01/17 08:30:25;;;;;;;4.50;2.20;;;3.10;99.90;;;;;;6291792;22;20291;-87
2022/01/17 08:33:05;;;;;;;;;;;;;;;;;;;;;
2022/01/17 08:35:37;;;;;;;5.83;2.10;;;3.10;99.90;;;;;;6201119;23;20005;-87
2022/01/17 08:38:16;;;;;;;6.53;2.27;;;3.30;99.90;;;;;;6291657;22;20004;-87
2022/01/17 08:40:48;;;;;;;5.33;2.13;;;3.20;99.90;;;;;;6288711;22;20000;-87
2022/01/17 08:43:20;;;;;;;5.03;2.20;;;3.20;99.90;;;;;;6262139;22;20409;-88
2022/01/17 08:46:22;;;;;;;4.80;1.83;;;3.20;99.90;;;;;;6290021;22;20033;-88
2022/01/17 08:48:59;;;;;;;4.27;1.60;;;3.20;99.90;;;;;;6289696;22;20003;-87
2022/01/17 08:51:28;;;;;;;5.00;1.90;;;3.20;99.90;;;;;;6292165;22;20004;-88
2022/01/17 08:54:10;;;;;;;4.63;1.70;;;3.20;99.90;;;;;;6294121;22;20000;-88
2022/01/17 08:56:38;;;;;;;6.57;2.03;;;3.30;99.90;;;;;;6292383;22;20070;-88
2022/01/17 08:59:04;;;;;;;4.13;1.53;;;3.30;99.90;;;;;;6266110;22;20012;-88
2022/01/17 09:01:34;;;;;;;5.17;1.70;;;3.40;99.90;;;;;;6292739;22;20027;-89
2022/01/17 09:04:09;;;;;;;4.73;1.83;;;3.40;99.90;;;;;;6268125;22;20029;-88
2022/01/17 09:06:38;;;;;;;4.37;2.00;;;3.50;99.90;;;;;;6296639;22;20006;-87
2022/01/17 09:09:04;;;;;;;5.83;1.97;;;3.40;99.90;;;;;;6295644;22;20074;-86
2022/01/17 09:11:33;;;;;;;5.03;1.80;;;3.60;99.90;;;;;;6286310;22;20099;-87
2022/01/17 09:13:59;;;;;;;4.50;1.83;;;3.50;99.90;;;;;;6276440;22;20110;-87
2022/01/17 09:16:35;;;;;;;4.50;1.93;;;3.60;99.90;;;;;;6287933;22;20004;-88
2022/01/17 09:19:06;;;;;;;3.90;1.53;;;3.70;99.90;;;;;;6263502;22;20015;-87
2022/01/17 09:21:41;;;;;;;4.57;1.80;;;3.80;99.90;;;;;;6267121;22;19987;-87
2022/01/17 09:24:18;;;;;;;4.10;1.50;;;3.90;99.90;;;;;;6266955;22;20026;-86
2022/01/17 09:26:45;;;;;;;3.63;1.63;;;3.90;99.90;;;;;;6250418;22;20042;-88
2022/01/17 09:29:12;;;;;;;3.43;1.40;;;4.00;99.90;;;;;;6250506;22;20010;-87
2022/01/17 09:31:46;;;;;;;4.27;1.80;;;4.00;99.90;;;;;;6265667;22;20003;-88
2022/01/17 09:34:51;;;;;;;4.53;1.73;;;4.00;99.90;;;;;;6271544;22;20011;-86
2022/01/17 09:37:25;;;;;;;3.33;1.50;;;4.20;99.90;;;;;;6293888;22;20034;-88
2022/01/17 09:40:03;;;;;;;3.77;1.50;;;4.20;99.90;;;;;;6299080;22;20051;-87
2022/01/17 09:42:35;;;;;;;3.47;1.20;;;4.30;99.90;;;;;;6269458;22;20007;-87
2022/01/17 09:45:12;;;;;;;5.28;1.70;;;4.30;99.90;;;;;;6294912;22;20002;-87
2022/01/17 09:50:35;;;;;;;4.43;1.38;;;4.30;99.90;;;;;;6290583;22;19999;-86
2022/01/17 09:53:21;;;;;;;4.97;1.80;;;4.30;99.90;;;;;;6268197;22;20323;-88
2022/01/17 09:55:55;;;;;;;5.70;1.67;;;4.40;99.90;;;;;;6293781;22;20069;-87
2022/01/17 09:58:29;;;;;;;3.43;1.37;;;4.30;99.90;;;;;;6268646;22;20000;-86
2022/01/17 10:00:59;;;;;;;4.17;1.73;;;4.30;99.90;;;;;;6293868;22;20015;-87
2022/01/17 10:03:37;;;;;;;5.23;2.23;;;4.40;99.90;;;;;;6292868;22;20071;-87
2022/01/17 10:06:27;;;;;;;3.40;1.20;;;4.40;99.90;;;;;;6295321;22;20000;-87
2022/01/17 10:09:35;;;;;;;4.97;1.50;;;4.40;99.90;;;;;;6295282;22;19992;-87
2022/01/17 10:12:17;;;;;;;5.13;1.57;;;4.50;99.90;;;;;;6205126;23;20008;-87
2022/01/17 10:15:05;;;;;;;5.00;1.67;;;4.60;99.90;;;;;;6227228;23;20011;-87
2022/01/17 10:17:45;;;;;;;3.03;1.33;;;4.60;99.90;;;;;;6253547;23;19996;-88
2022/01/17 10:20:15;;;;;;;3.03;1.43;;;4.90;99.90;;;;;;6238033;23;19996;-87
2022/01/17 10:37:31;;;;;;;3.27;1.37;;;5.10;99.90;;;;;;6267016;23;20015;-88
2022/01/17 10:40:23;;;;;;;4.80;1.20;;;5.20;99.90;;;;;;6266938;23;20019;-88
2022/01/17 10:42:50;;;;;;;3.88;1.38;;;5.30;99.90;;;;;;6230543;23;20015;-88
2022/01/17 10:45:35;;;;;;;3.57;1.30;;;5.30;99.90;;;;;;6266853;23;20023;-88
2022/01/17 10:48:43;;;;;;;3.60;1.03;;;5.10;99.90;;;;;;6241393;23;20011;-87
2022/01/17 10:53:55;;;;;;;4.40;1.63;;;5.10;99.90;;;;;;6319580;22;20023;-87
2022/01/17 10:57:09;;;;;;;2.77;1.13;;;5.00;99.90;;;;;;6296045;22;20063;-86
2022/01/17 10:59:51;;;;;;;2.63;1.20;;;5.00;99.90;;;;;;6277551;22;20015;-88
2022/01/17 11:02:53;;;;;;;4.40;1.15;;;5.00;99.90;;;;;;6312846;22;20003;-88
2022/01/17 11:06:12;;;;;;;3.30;1.38;;;5.00;99.90;;;;;;6323339;22;20007;-88
2022/01/17 11:09:25;;;;;;;5.20;1.53;;;4.90;99.90;;;;;;6268132;22;20050;-88
2022/01/17 11:12:19;;;;;;;2.27;0.90;;;4.90;99.90;;;;;;6276544;22;20012;-87
2022/01/17 11:15:07;;;;;;;1.23;0.60;;;4.90;99.90;;;;;;6297381;22;20016;-87
2022/01/17 11:18:04;;;;;;;2.27;1.00;;;4.90;99.90;;;;;;6294070;22;20014;-87
2022/01/17 11:20:37;;;;;;;2.10;0.60;;;4.90;99.90;;;;;;6270238;22;20060;-87
2022/01/17 11:23:31;;;;;;;2.83;0.70;;;4.90;99.90;;;;;;6246077;22;20007;-86
2022/01/17 11:26:18;;;;;;;2.03;0.70;;;4.90;99.90;;;;;;6237949;23;20072;-88
2022/01/17 11:28:59;;;;;;;1.60;0.50;;;5.00;99.90;;;;;;6234771;23;20004;-87
2022/01/17 11:32:09;;;;;;;1.77;0.50;;;4.90;99.90;;;;;;6262255;23;20087;-88
2022/01/17 11:35:23;;;;;;;1.17;0.53;;;5.00;99.90;;;;;;6177342;23;20017;-88
2022/01/17 11:45:23;;;;;;;1.77;0.60;;;4.90;99.90;;;;;;6172662;23;20020;-88
2022/01/17 11:48:49;;;;;;;2.40;0.60;;;5.00;99.90;;;;;;6252692;23;20003;-88
2022/01/17 11:51:42;;;;;;;1.07;0.40;;;4.80;99.90;;;;;;6216828;23;20023;-87
2022/01/17 11:54:35;;;;;;;;;;;4.80;99.90;;;;;;6262839;23;20004;-88
2022/01/17 11:57:42;;;;;;;1.73;0.70;;;4.80;99.90;;;;;;6229506;23;19914;-88
2022/01/17 12:00:32;;;;;;;1.50;0.60;;;4.80;99.90;;;;;;6252133;23;20004;-86
2022/01/17 12:03:27;;;;;;;1.87;0.80;;;4.70;99.90;;;;;;6257425;23;19992;-87
2022/01/17 12:06:23;;;;;;;1.50;0.40;;;4.80;99.90;;;;;;6262145;23;19996;-87
2022/01/17 12:09:10;;;;;;;1.37;0.47;;;4.50;99.90;;;;;;6197301;23;20000;-87
2022/01/17 12:12:14;;;;;;;2.40;0.70;;;4.60;99.90;;;;;;6213683;23;20055;-87
2022/01/17 12:15:08;;;;;;;1.60;0.80;;;4.50;99.90;;;;;;6260163;23;20336;-87
2022/01/17 12:17:39;;;;;;;2.83;0.80;;;4.60;99.90;;;;;;6262649;23;20011;-87
2022/01/17 12:20:27;;;;;;;;;;;;;;;;;;;;;
2022/01/17 12:23:25;;;;;;;;;;;;;;;;;;;;;
2022/01/17 12:26:30;;;;;;;2.07;0.63;;;4.70;99.90;;;;;;6240501;23;20008;-88
2022/01/17 12:29:06;;;;;;;2.83;0.97;;;4.70;99.90;;;;;;6233577;23;20000;-88
2022/01/17 12:32:21;;;;;;;;;;;;;;;;;;;;;
2022/01/17 12:35:08;;;;;;;2.17;0.83;;;4.70;99.90;;;;;;6267020;23;20015;-88
2022/01/17 12:44:27;;;;;;;2.90;1.20;;;4.90;99.90;;;;;;6171391;23;20018;-88
2022/01/17 12:47:17;;;;;;;2.33;1.03;;;4.70;99.90;;;;;;6172453;23;20016;-88
2022/01/17 12:50:36;;;;;;;3.50;1.40;;;4.70;99.90;;;;;;6227533;23;20070;-87
2022/01/17 12:53:21;;;;;;;3.67;1.33;;;4.80;99.90;;;;;;6235604;23;20000;-87
2022/01/17 12:56:22;;;;;;;3.20;1.37;;;4.90;99.90;;;;;;6232530;23;20004;-89
2022/01/17 12:59:17;;;;;;;4.70;1.50;;;4.90;99.90;;;;;;6205854;23;20001;-89
2022/01/17 13:01:50;;;;;;;4.13;1.13;;;4.80;99.90;;;;;;6267009;22;20016;-86
2022/01/17 13:04:26;;;;;;;2.50;1.10;;;5.00;99.90;;;;;;6263708;22;20019;-87
2022/01/17 13:06:53;;;;;;;3.23;1.03;;;5.00;99.90;;;;;;6293528;22;20007;-87
2022/01/17 13:09:23;;;;;;;3.40;1.40;;;5.00;99.90;;;;;;6261805;22;20075;-87
2022/01/17 13:15:23;;;;;;;2.33;1.03;;;5.00;99.90;;;;;;6265851;22;20004;-89
2022/01/17 13:21:16;;;;;;;3.50;1.07;;;5.00;99.90;;;;;;6292602;22;20140;-88
2022/01/17 13:24:34;;;;;;;;;;;;;;;;;;;;;
2022/01/17 13:30:41;;;;;;;1.87;0.63;;;5.00;99.90;;;;;;6263432;23;20001;-88
2022/01/17 13:33:08;;;;;;;2.27;0.80;;;5.00;99.90;;;;;;6208428;22;20000;-88
2022/01/17 13:35:37;;;;;;;1.60;0.80;;;5.00;99.90;;;;;;6289783;22;20438;-88
2022/01/17 13:38:12;;;;;;;2.10;0.90;;;4.90;99.90;;;;;;6284767;22;19992;-88
2022/01/17 13:40:39;;;;;;;4.33;1.20;;;4.90;99.90;;;;;;6273946;22;20022;-88
2022/01/17 13:43:08;;;;;;;2.37;0.73;;;4.90;99.90;;;;;;6282006;22;20012;-88
2022/01/17 13:45:41;;;;;;;1.93;0.77;;;4.90;99.90;;;;;;6295786;22;20059;-88
2022/01/17 13:48:15;;;;;;;4.57;1.10;;;4.90;99.90;;;;;;6265612;22;19996;-88
2022/01/17 13:51:30;;;;;;;1.80;0.60;;;4.80;99.90;;;;;;6293357;22;20034;-87
2022/01/17 13:54:08;;;;;;;2.63;0.77;;;4.80;99.90;;;;;;6288504;22;20003;-90
2022/01/17 13:56:38;;;;;;;2.50;0.90;;;4.80;99.90;;;;;;6266488;22;20004;-89
2022/01/17 13:59:23;;;;;;;2.20;0.83;;;4.70;99.90;;;;;;6293502;22;20004;-89
2022/01/17 14:01:52;;;;;;;3.40;1.10;;;4.80;99.90;;;;;;6294318;22;20014;-87
2022/01/17 14:04:31;;;;;;;3.47;0.63;;;4.80;99.90;;;;;;6293377;22;20011;-90
2022/01/17 14:14:03;;;;;;;1.73;0.70;;;4.80;99.90;;;;;;6276023;22;20039;-89
2022/01/17 14:16:39;;;;;;;1.90;0.60;;;4.90;99.90;;;;;;6268418;22;20023;-88
2022/01/17 14:19:14;;;;;;;2.33;0.60;;;4.90;99.90;;;;;;6278903;22;20000;-88
2022/01/17 14:21:59;;;;;;;2.83;0.87;;;5.00;99.90;;;;;;6276897;22;20069;-89
2022/01/17 14:24:44;;;;;;;3.73;0.87;;;5.00;99.90;;;;;;6279357;22;20091;-89
2022/01/17 14:27:30;;;;;;;2.67;0.90;;;5.00;99.90;;;;;;6282095;22;20119;-91
2022/01/17 14:30:06;;;;;;;1.37;0.60;;;5.00;99.90;;;;;;6283529;22;20087;-90
2022/01/17 14:32:37;;;;;;;2.33;0.83;;;5.00;99.90;;;;;;6282854;22;20055;-89
2022/01/17 14:35:08;;;;;;;2.13;0.70;;;5.00;99.90;;;;;;6290130;22;20050;-89
2022/01/17 14:37:34;;;;;;;2.10;0.77;;;5.00;99.90;;;;;;6295665;22;20010;-89
2022/01/17 14:40:17;;;;;;;4.40;0.80;;;5.00;99.90;;;;;;6296660;22;20003;-89
2022/01/17 14:42:48;;;;;;;2.17;0.60;;;5.00;99.90;;;;;;6245443;22;20014;-89
2022/01/17 14:45:49;;;;;;;2.40;0.60;;;5.00;99.90;;;;;;6294163;22;20006;-89